sensor_id;sensor_type;location;lat;lon;timestamp;temperature;humidity
54642;DHT22;40536;53.194;5.728;2024-01-15T00:00:40;3.40;99.90
54642;DHT22;40536;53.194;5.728;2024-01-15T00:03:05;4.10;99.90
54642;DHT22;40536;53.194;5.728;2024-01-15T00:05:31;3.50;99.90
54642;DHT22;40536;53.194;5.728;2024-01-15T00:07:57;3.40;99.90
54642;DHT22;40536;53.194;5.728;2024-01-15T00:10:23;4.70;99.90
54642;DHT22;40536;53.194;5.728;2024-01-15T00:12:49;3.40;99.90
54642;DHT22;40536;53.194;5.728;2024-01-15T00:15:15;3.50;99.90
54642;DHT22;40536;53.194;5.728;2024-01-15T00:17:41;3.50;99.90
54642;DHT22;40536;53.194;5.728;2024-01-15T00:20:07;4.50;99.90
54642;DHT22;40536;53.194;5.728;2024-01-15T00:22:32;3.50;99.90
54642;DHT22;40536;53.194;5.728;2024-01-15T00:25:01;3.50;99.90
54642;DHT22;40536;53.194;5.728;2024-01-15T00:27:26;4.30;99.90
54642;DHT22;40536;53.194;5.728;2024-01-15T00:29:52;4.80;99.90
54642;DHT22;40536;53.194;5.728;2024-01-15T00:32:19;3.60;99.90
54642;DHT22;40536;53.194;5.728;2024-01-15T00:34:46;3.70;99.90
54642;DHT22;40536;53.194;5.728;2024-01-15T00:37:13;3.70;99.90
54642;DHT22;40536;53.194;5.728;2024-01-15T00:39:39;3.80;99.90
54642;DHT22;40536;53.194;5.728;2024-01-15T00:42:05;3.80;99.90
54642;DHT22;40536;53.194;5.728;2024-01-15T00:44:30;3.50;99.90
54642;DHT22;40536;53.194;5.728;2024-01-15T00:46:56;3.10;99.90
54642;DHT22;40536;53.194;5.728;2024-01-15T00:49:21;2.80;99.90
54642;DHT22;40536;53.194;5.728;2024-01-15T00:51:47;2.60;99.90
54642;DHT22;40536;53.194;5.728;2024-01-15T00:54:13;2.50;99.90
54642;DHT22;40536;53.194;5.728;2024-01-15T00:56:38;2.50;99.90
54642;DHT22;40536;53.194;5.728;2024-01-15T00:59:04;2.40;99.90
54642;DHT22;40536;53.194;5.728;2024-01-15T01:01:30;2.40;99.90
54642;DHT22;40536;53.194;5.728;2024-01-15T01:03:56;2.60;99.90
54642;DHT22;40536;53.194;5.728;2024-01-15T01:06:21;2.40;99.90
54642;DHT22;40536;53.194;5.728;2024-01-15T01:08:47;2.40;99.90
54642;DHT22;40536;53.194;5.728;2024-01-15T01:11:13;2.40;99.90
54642;DHT22;40536;53.194;5.728;2024-01-15T01:13:39;3.40;99.90
54642;DHT22;40536;53.194;5.728;2024-01-15T01:16:05;2.50;99.90
54642;DHT22;40536;53.194;5.728;2024-01-15T01:18:30;2.60;99.90
54642;DHT22;40536;53.194;5.728;2024-01-15T01:20:56;2.60;99.90
54642;DHT22;40536;53.194;5.728;2024-01-15T01:23:22;2.60;99.90
54642;DHT22;40536;53.194;5.728;2024-01-15T01:25:47;2.60;99.90
54642;DHT22;40536;53.194;5.728;2024-01-15T01:28:13;2.70;99.90
54642;DHT22;40536;53.194;5.728;2024-01-15T01:30:39;2.70;99.90
54642;DHT22;40536;53.194;5.728;2024-01-15T01:33:05;2.90;99.90
54642;DHT22;40536;53.194;5.728;2024-01-15T01:35:31;2.90;99.90
54642;DHT22;40536;53.194;5.728;2024-01-15T01:37:57;3.00;99.90
54642;DHT22;40536;53.194;5.728;2024-01-15T01:40:23;3.00;99.90
54642;DHT22;40536;53.194;5.728;2024-01-15T01:42:49;3.00;99.90
54642;DHT22;40536;53.194;5.728;2024-01-15T01:45:14;3.00;99.90
54642;DHT22;40536;53.194;5.728;2024-01-15T01:47:40;3.10;99.90
54642;DHT22;40536;53.194;5.728;2024-01-15T01:50:07;3.00;99.90
54642;DHT22;40536;53.194;5.728;2024-01-15T01:52:33;3.00;99.90
54642;DHT22;40536;53.194;5.728;2024-01-15T01:55:00;3.00;99.90
54642;DHT22;40536;53.194;5.728;2024-01-15T01:57:27;3.00;99.90
54642;DHT22;40536;53.194;5.728;2024-01-15T01:59:54;3.00;99.90
54642;DHT22;40536;53.194;5.728;2024-01-15T02:02:20;3.00;99.90
54642;DHT22;40536;53.194;5.728;2024-01-15T02:04:47;4.40;99.90
54642;DHT22;40536;53.194;5.728;2024-01-15T02:07:13;2.90;99.90
54642;DHT22;40536;53.194;5.728;2024-01-15T02:09:39;2.90;99.90
54642;DHT22;40536;53.194;5.728;2024-01-15T02:12:05;2.80;99.90
54642;DHT22;40536;53.194;5.728;2024-01-15T02:14:31;2.80;99.90
54642;DHT22;40536;53.194;5.728;2024-01-15T02:16:56;2.70;99.90
54642;DHT22;40536;53.194;5.728;2024-01-15T02:19:22;2.70;99.90
54642;DHT22;40536;53.194;5.728;2024-01-15T02:21:48;2.70;99.90
54642;DHT22;40536;53.194;5.728;2024-01-15T02:24:14;2.70;99.90
54642;DHT22;40536;53.194;5.728;2024-01-15T02:26:39;2.60;99.90
54642;DHT22;40536;53.194;5.728;2024-01-15T02:29:07;2.60;99.90
54642;DHT22;40536;53.194;5.728;2024-01-15T02:31:36;2.50;99.90
54642;DHT22;40536;53.194;5.728;2024-01-15T02:34:04;2.60;99.90
54642;DHT22;40536;53.194;5.728;2024-01-15T02:36:32;3.60;99.90
54642;DHT22;40536;53.194;5.728;2024-01-15T02:38:57;2.80;99.90
54642;DHT22;40536;53.194;5.728;2024-01-15T02:41:23;2.60;99.90
54642;DHT22;40536;53.194;5.728;2024-01-15T02:43:48;3.20;99.90
54642;DHT22;40536;53.194;5.728;2024-01-15T02:46:14;2.50;99.90
54642;DHT22;40536;53.194;5.728;2024-01-15T02:48:41;2.50;99.90
54642;DHT22;40536;53.194;5.728;2024-01-15T02:51:07;2.50;99.90
54642;DHT22;40536;53.194;5.728;2024-01-15T02:53:32;2.50;99.90
54642;DHT22;40536;53.194;5.728;2024-01-15T02:55:58;2.50;99.90
54642;DHT22;40536;53.194;5.728;2024-01-15T02:58:24;2.50;99.90
54642;DHT22;40536;53.194;5.728;2024-01-15T03:00:50;2.50;99.90
54642;DHT22;40536;53.194;5.728;2024-01-15T03:03:15;2.60;99.90
54642;DHT22;40536;53.194;5.728;2024-01-15T03:05:41;2.50;99.90
54642;DHT22;40536;53.194;5.728;2024-01-15T03:08:07;2.50;99.90
54642;DHT22;40536;53.194;5.728;2024-01-15T03:10:32;2.50;99.90
54642;DHT22;40536;53.194;5.728;2024-01-15T03:12:58;3.80;99.90
54642;DHT22;40536;53.194;5.728;2024-01-15T03:15:23;2.50;99.90
54642;DHT22;40536;53.194;5.728;2024-01-15T03:17:49;2.90;99.90
54642;DHT22;40536;53.194;5.728;2024-01-15T03:20:14;2.70;99.90
54642;DHT22;40536;53.194;5.728;2024-01-15T03:22:40;2.70;99.90
54642;DHT22;40536;53.194;5.728;2024-01-15T03:25:06;2.80;99.90
54642;DHT22;40536;53.194;5.728;2024-01-15T03:27:32;2.70;99.90
54642;DHT22;40536;53.194;5.728;2024-01-15T03:29:59;2.80;99.90
54642;DHT22;40536;53.194;5.728;2024-01-15T03:32:24;2.80;99.90
54642;DHT22;40536;53.194;5.728;2024-01-15T03:34:50;2.80;99.90
54642;DHT22;40536;53.194;5.728;2024-01-15T03:37:17;2.80;99.90
54642;DHT22;40536;53.194;5.728;2024-01-15T03:39:43;2.80;99.90
54642;DHT22;40536;53.194;5.728;2024-01-15T03:42:09;2.70;99.90
54642;DHT22;40536;53.194;5.728;2024-01-15T03:44:34;2.70;99.90
54642;DHT22;40536;53.194;5.728;2024-01-15T03:47:00;2.60;99.90
54642;DHT22;40536;53.194;5.728;2024-01-15T03:49:26;2.50;99.90
54642;DHT22;40536;53.194;5.728;2024-01-15T03:51:51;2.80;99.90
54642;DHT22;40536;53.194;5.728;2024-01-15T03:54:17;2.50;99.90
54642;DHT22;40536;53.194;5.728;2024-01-15T03:56:43;2.40;99.90
54642;DHT22;40536;53.194;5.728;2024-01-15T03:59:08;2.50;99.90
54642;DHT22;40536;53.194;5.728;2024-01-15T04:01:34;2.40;99.90
54642;DHT22;40536;53.194;5.728;2024-01-15T04:03:59;2.40;99.90
54642;DHT22;40536;53.194;5.728;2024-01-15T04:06:25;2.40;99.90
54642;DHT22;40536;53.194;5.728;2024-01-15T04:08:51;2.40;99.90
54642;DHT22;40536;53.194;5.728;2024-01-15T04:11:16;2.70;99.90
54642;DHT22;40536;53.194;5.728;2024-01-15T04:13:42;2.30;99.90
54642;DHT22;40536;53.194;5.728;2024-01-15T04:16:07;2.20;99.90
54642;DHT22;40536;53.194;5.728;2024-01-15T04:18:33;2.20;99.90
54642;DHT22;40536;53.194;5.728;2024-01-15T04:20:59;2.20;99.90
54642;DHT22;40536;53.194;5.728;2024-01-15T04:23:24;3.10;99.90
54642;DHT22;40536;53.194;5.728;2024-01-15T04:25:50;2.10;99.90
54642;DHT22;40536;53.194;5.728;2024-01-15T04:28:16;2.10;99.90
54642;DHT22;40536;53.194;5.728;2024-01-15T04:30:41;2.10;99.90
54642;DHT22;40536;53.194;5.728;2024-01-15T04:33:07;2.90;99.90
54642;DHT22;40536;53.194;5.728;2024-01-15T04:35:34;2.20;99.90
54642;DHT22;40536;53.194;5.728;2024-01-15T04:38:00;2.20;99.90
54642;DHT22;40536;53.194;5.728;2024-01-15T04:40:26;2.20;99.90
54642;DHT22;40536;53.194;5.728;2024-01-15T04:42:53;2.30;99.90
54642;DHT22;40536;53.194;5.728;2024-01-15T04:45:19;2.30;99.90
54642;DHT22;40536;53.194;5.728;2024-01-15T04:47:48;3.20;99.90
54642;DHT22;40536;53.194;5.728;2024-01-15T04:50:14;2.30;99.90
54642;DHT22;40536;53.194;5.728;2024-01-15T04:52:39;2.20;99.90
54642;DHT22;40536;53.194;5.728;2024-01-15T04:55:05;2.20;99.90
54642;DHT22;40536;53.194;5.728;2024-01-15T04:57:31;2.20;99.90
54642;DHT22;40536;53.194;5.728;2024-01-15T04:59:57;2.20;99.90
54642;DHT22;40536;53.194;5.728;2024-01-15T05:02:23;2.10;99.90
54642;DHT22;40536;53.194;5.728;2024-01-15T05:04:48;2.10;99.90
54642;DHT22;40536;53.194;5.728;2024-01-15T05:07:14;2.00;99.90
54642;DHT22;40536;53.194;5.728;2024-01-15T05:09:40;2.00;99.90
54642;DHT22;40536;53.194;5.728;2024-01-15T05:12:05;2.00;99.90
54642;DHT22;40536;53.194;5.728;2024-01-15T05:14:31;2.00;99.90
54642;DHT22;40536;53.194;5.728;2024-01-15T05:16:57;2.10;99.90
54642;DHT22;40536;53.194;5.728;2024-01-15T05:19:22;2.10;99.90
54642;DHT22;40536;53.194;5.728;2024-01-15T05:21:48;2.20;99.90
54642;DHT22;40536;53.194;5.728;2024-01-15T05:24:13;2.30;99.90
54642;DHT22;40536;53.194;5.728;2024-01-15T05:26:39;2.40;99.90
54642;DHT22;40536;53.194;5.728;2024-01-15T05:29:04;2.40;99.90
54642;DHT22;40536;53.194;5.728;2024-01-15T05:31:30;3.70;99.90
54642;DHT22;40536;53.194;5.728;2024-01-15T05:33:56;2.40;99.90
54642;DHT22;40536;53.194;5.728;2024-01-15T05:36:23;2.40;99.90
54642;DHT22;40536;53.194;5.728;2024-01-15T05:38:49;3.70;99.90
54642;DHT22;40536;53.194;5.728;2024-01-15T05:41:15;2.40;99.90
54642;DHT22;40536;53.194;5.728;2024-01-15T05:43:40;3.50;99.90
54642;DHT22;40536;53.194;5.728;2024-01-15T05:46:06;1.40;99.90
54642;DHT22;40536;53.194;5.728;2024-01-15T05:48:32;2.40;99.90
54642;DHT22;40536;53.194;5.728;2024-01-15T05:50:57;2.40;99.90
54642;DHT22;40536;53.194;5.728;2024-01-15T05:53:23;2.40;99.90
54642;DHT22;40536;53.194;5.728;2024-01-15T05:55:48;2.50;99.90
54642;DHT22;40536;53.194;5.728;2024-01-15T05:58:14;2.40;99.90
54642;DHT22;40536;53.194;5.728;2024-01-15T06:00:40;2.50;99.90
54642;DHT22;40536;53.194;5.728;2024-01-15T06:03:05;2.60;99.90
54642;DHT22;40536;53.194;5.728;2024-01-15T06:05:31;2.60;99.90
54642;DHT22;40536;53.194;5.728;2024-01-15T06:07:56;3.60;99.90
54642;DHT22;40536;53.194;5.728;2024-01-15T06:10:22;2.30;99.90
54642;DHT22;40536;53.194;5.728;2024-01-15T06:12:48;3.70;99.90
54642;DHT22;40536;53.194;5.728;2024-01-15T06:15:13;2.20;99.90
54642;DHT22;40536;53.194;5.728;2024-01-15T06:17:39;2.10;99.90
54642;DHT22;40536;53.194;5.728;2024-01-15T06:20:05;2.00;99.90
54642;DHT22;40536;53.194;5.728;2024-01-15T06:22:31;1.90;99.90
54642;DHT22;40536;53.194;5.728;2024-01-15T06:24:57;1.80;99.90
54642;DHT22;40536;53.194;5.728;2024-01-15T06:27:23;1.80;99.90
54642;DHT22;40536;53.194;5.728;2024-01-15T06:29:50;1.80;99.90
54642;DHT22;40536;53.194;5.728;2024-01-15T06:32:15;1.70;99.90
54642;DHT22;40536;53.194;5.728;2024-01-15T06:34:42;1.70;99.90
54642;DHT22;40536;53.194;5.728;2024-01-15T06:37:08;1.70;99.90
54642;DHT22;40536;53.194;5.728;2024-01-15T06:39:34;2.60;99.90
54642;DHT22;40536;53.194;5.728;2024-01-15T06:41:59;1.60;99.90
54642;DHT22;40536;53.194;5.728;2024-01-15T06:44:25;1.60;99.90
54642;DHT22;40536;53.194;5.728;2024-01-15T06:46:51;1.60;99.90
54642;DHT22;40536;53.194;5.728;2024-01-15T06:49:17;1.60;99.90
54642;DHT22;40536;53.194;5.728;2024-01-15T06:51:42;1.70;99.90
54642;DHT22;40536;53.194;5.728;2024-01-15T06:56:35;1.90;99.90
54642;DHT22;40536;53.194;5.728;2024-01-15T06:59:00;1.90;99.90
54642;DHT22;40536;53.194;5.728;2024-01-15T07:01:26;3.50;99.90
54642;DHT22;40536;53.194;5.728;2024-01-15T07:03:52;2.10;99.90
54642;DHT22;40536;53.194;5.728;2024-01-15T07:06:17;2.10;99.90
54642;DHT22;40536;53.194;5.728;2024-01-15T07:08:43;2.20;99.90
54642;DHT22;40536;53.194;5.728;2024-01-15T07:11:08;2.20;99.90
54642;DHT22;40536;53.194;5.728;2024-01-15T07:13:36;2.20;99.90
54642;DHT22;40536;53.194;5.728;2024-01-15T07:16:02;2.20;99.90
54642;DHT22;40536;53.194;5.728;2024-01-15T07:18:27;2.30;99.90
54642;DHT22;40536;53.194;5.728;2024-01-15T07:20:53;2.40;99.90
54642;DHT22;40536;53.194;5.728;2024-01-15T07:23:19;2.40;99.90
54642;DHT22;40536;53.194;5.728;2024-01-15T07:25:45;2.40;99.90
54642;DHT22;40536;53.194;5.728;2024-01-15T07:28:10;2.30;99.90
54642;DHT22;40536;53.194;5.728;2024-01-15T07:30:36;2.30;99.90
54642;DHT22;40536;53.194;5.728;2024-01-15T07:33:05;2.30;99.90
54642;DHT22;40536;53.194;5.728;2024-01-15T07:35:32;2.20;99.90
54642;DHT22;40536;53.194;5.728;2024-01-15T07:37:57;2.20;99.90
54642;DHT22;40536;53.194;5.728;2024-01-15T07:40:23;2.10;99.90
54642;DHT22;40536;53.194;5.728;2024-01-15T07:42:50;2.00;99.90
54642;DHT22;40536;53.194;5.728;2024-01-15T07:45:16;1.90;99.90
54642;DHT22;40536;53.194;5.728;2024-01-15T07:47:42;2.50;99.90
54642;DHT22;40536;53.194;5.728;2024-01-15T07:50:08;1.80;99.90
54642;DHT22;40536;53.194;5.728;2024-01-15T07:52:33;1.70;99.90
54642;DHT22;40536;53.194;5.728;2024-01-15T07:54:59;1.60;99.90
54642;DHT22;40536;53.194;5.728;2024-01-15T07:57:29;2.80;99.90
54642;DHT22;40536;53.194;5.728;2024-01-15T07:59:54;1.60;99.90
54642;DHT22;40536;53.194;5.728;2024-01-15T08:02:20;1.50;99.90
54642;DHT22;40536;53.194;5.728;2024-01-15T08:04:47;1.50;99.90
54642;DHT22;40536;53.194;5.728;2024-01-15T08:07:12;1.50;99.90
54642;DHT22;40536;53.194;5.728;2024-01-15T08:09:38;1.50;99.90
54642;DHT22;40536;53.194;5.728;2024-01-15T08:12:04;1.50;99.90
54642;DHT22;40536;53.194;5.728;2024-01-15T08:14:31;1.60;99.90
54642;DHT22;40536;53.194;5.728;2024-01-15T08:16:57;1.70;99.90
54642;DHT22;40536;53.194;5.728;2024-01-15T08:19:23;1.80;99.90
54642;DHT22;40536;53.194;5.728;2024-01-15T08:21:49;1.80;99.90
54642;DHT22;40536;53.194;5.728;2024-01-15T08:24:15;1.90;99.90
54642;DHT22;40536;53.194;5.728;2024-01-15T08:26:42;2.00;99.90
54642;DHT22;40536;53.194;5.728;2024-01-15T08:29:07;2.00;99.90
54642;DHT22;40536;53.194;5.728;2024-01-15T08:31:33;2.10;99.90
54642;DHT22;40536;53.194;5.728;2024-01-15T08:33:59;2.10;99.90
54642;DHT22;40536;53.194;5.728;2024-01-15T08:36:27;2.20;99.90
54642;DHT22;40536;53.194;5.728;2024-01-15T08:38:55;2.30;99.90
54642;DHT22;40536;53.194;5.728;2024-01-15T08:41:20;2.30;99.90
54642;DHT22;40536;53.194;5.728;2024-01-15T08:43:46;3.30;99.90
54642;DHT22;40536;53.194;5.728;2024-01-15T08:46:12;2.50;99.90
54642;DHT22;40536;53.194;5.728;2024-01-15T08:48:37;2.70;99.90
54642;DHT22;40536;53.194;5.728;2024-01-15T08:51:03;2.70;99.90
54642;DHT22;40536;53.194;5.728;2024-01-15T08:53:29;2.80;99.90
54642;DHT22;40536;53.194;5.728;2024-01-15T08:55:55;2.80;99.90
54642;DHT22;40536;53.194;5.728;2024-01-15T08:58:20;4.20;99.90
54642;DHT22;40536;53.194;5.728;2024-01-15T09:00:46;3.00;99.90
54642;DHT22;40536;53.194;5.728;2024-01-15T09:03:12;3.10;99.90
54642;DHT22;40536;53.194;5.728;2024-01-15T09:05:37;4.10;99.90
54642;DHT22;40536;53.194;5.728;2024-01-15T09:08:03;3.10;99.90
54642;DHT22;40536;53.194;5.728;2024-01-15T09:10:29;3.10;99.90
54642;DHT22;40536;53.194;5.728;2024-01-15T09:12:54;3.10;99.90
54642;DHT22;40536;53.194;5.728;2024-01-15T09:15:20;3.00;99.90
54642;DHT22;40536;53.194;5.728;2024-01-15T09:17:46;3.00;99.90
54642;DHT22;40536;53.194;5.728;2024-01-15T09:20:11;3.00;99.90
54642;DHT22;40536;53.194;5.728;2024-01-15T09:22:40;3.10;99.90
54642;DHT22;40536;53.194;5.728;2024-01-15T09:25:08;3.10;99.90
54642;DHT22;40536;53.194;5.728;2024-01-15T09:27:35;3.10;99.90
54642;DHT22;40536;53.194;5.728;2024-01-15T09:30:02;3.00;99.90
54642;DHT22;40536;53.194;5.728;2024-01-15T09:32:28;3.40;99.90
54642;DHT22;40536;53.194;5.728;2024-01-15T09:34:53;3.00;99.90
54642;DHT22;40536;53.194;5.728;2024-01-15T09:37:19;2.90;99.90
54642;DHT22;40536;53.194;5.728;2024-01-15T09:39:44;3.00;99.90
54642;DHT22;40536;53.194;5.728;2024-01-15T09:42:10;2.90;99.90
54642;DHT22;40536;53.194;5.728;2024-01-15T09:44:36;3.70;99.90
54642;DHT22;40536;53.194;5.728;2024-01-15T09:47:04;2.90;99.90
54642;DHT22;40536;53.194;5.728;2024-01-15T09:49:30;2.90;99.90
54642;DHT22;40536;53.194;5.728;2024-01-15T09:51:57;3.00;99.90
54642;DHT22;40536;53.194;5.728;2024-01-15T09:54:23;3.00;99.90
54642;DHT22;40536;53.194;5.728;2024-01-15T09:56:49;3.00;99.90
54642;DHT22;40536;53.194;5.728;2024-01-15T09:59:16;3.10;99.90
54642;DHT22;40536;53.194;5.728;2024-01-15T10:01:44;3.20;99.90
54642;DHT22;40536;53.194;5.728;2024-01-15T10:04:10;3.30;99.90
54642;DHT22;40536;53.194;5.728;2024-01-15T10:06:38;3.80;99.90
54642;DHT22;40536;53.194;5.728;2024-01-15T10:09:05;3.30;99.90
54642;DHT22;40536;53.194;5.728;2024-01-15T10:11:31;3.10;99.90
54642;DHT22;40536;53.194;5.728;2024-01-15T10:13:57;3.80;99.90
54642;DHT22;40536;53.194;5.728;2024-01-15T10:16:23;2.40;99.90
54642;DHT22;40536;53.194;5.728;2024-01-15T10:18:49;2.10;99.90
54642;DHT22;40536;53.194;5.728;2024-01-15T10:21:15;2.00;99.90
54642;DHT22;40536;53.194;5.728;2024-01-15T10:23:41;2.00;99.90
54642;DHT22;40536;53.194;5.728;2024-01-15T10:26:07;2.00;99.90
54642;DHT22;40536;53.194;5.728;2024-01-15T10:28:33;2.20;99.90
54642;DHT22;40536;53.194;5.728;2024-01-15T10:31:00;2.30;99.90
54642;DHT22;40536;53.194;5.728;2024-01-15T10:33:27;2.40;99.90
54642;DHT22;40536;53.194;5.728;2024-01-15T10:35:57;2.50;99.90
54642;DHT22;40536;53.194;5.728;2024-01-15T10:38:24;2.50;99.90
54642;DHT22;40536;53.194;5.728;2024-01-15T10:40:56;2.60;99.90
54642;DHT22;40536;53.194;5.728;2024-01-15T10:43:22;3.90;99.90
54642;DHT22;40536;53.194;5.728;2024-01-15T10:45:49;2.80;99.90
54642;DHT22;40536;53.194;5.728;2024-01-15T10:48:17;3.00;99.90
54642;DHT22;40536;53.194;5.728;2024-01-15T10:50:44;3.00;99.90
54642;DHT22;40536;53.194;5.728;2024-01-15T10:53:12;3.10;99.90
54642;DHT22;40536;53.194;5.728;2024-01-15T10:55:38;3.20;99.90
54642;DHT22;40536;53.194;5.728;2024-01-15T10:58:05;3.20;99.90
54642;DHT22;40536;53.194;5.728;2024-01-15T11:00:36;3.20;99.90
54642;DHT22;40536;53.194;5.728;2024-01-15T11:03:06;3.20;99.90
54642;DHT22;40536;53.194;5.728;2024-01-15T11:05:42;3.20;99.90
54642;DHT22;40536;53.194;5.728;2024-01-15T11:08:08;3.20;99.90
54642;DHT22;40536;53.194;5.728;2024-01-15T11:10:45;3.90;99.90
54642;DHT22;40536;53.194;5.728;2024-01-15T11:13:22;4.50;99.90
54642;DHT22;40536;53.194;5.728;2024-01-15T11:16:08;3.10;99.90
54642;DHT22;40536;53.194;5.728;2024-01-15T11:18:41;2.90;99.90
54642;DHT22;40536;53.194;5.728;2024-01-15T11:23:43;2.70;99.90
54642;DHT22;40536;53.194;5.728;2024-01-15T11:29:01;3.30;99.90
54642;DHT22;40536;53.194;5.728;2024-01-15T11:34:07;2.00;99.90
54642;DHT22;40536;53.194;5.728;2024-01-15T11:42:00;2.00;99.90
54642;DHT22;40536;53.194;5.728;2024-01-15T11:44:27;2.10;99.90
54642;DHT22;40536;53.194;5.728;2024-01-15T11:47:03;2.10;99.90
54642;DHT22;40536;53.194;5.728;2024-01-15T11:52:26;2.30;99.90
54642;DHT22;40536;53.194;5.728;2024-01-15T11:57:57;2.50;99.90
54642;DHT22;40536;53.194;5.728;2024-01-15T12:00:23;2.60;99.90
54642;DHT22;40536;53.194;5.728;2024-01-15T12:02:50;2.70;99.90
54642;DHT22;40536;53.194;5.728;2024-01-15T12:05:19;2.80;99.90
54642;DHT22;40536;53.194;5.728;2024-01-15T12:07:47;2.80;99.90
54642;DHT22;40536;53.194;5.728;2024-01-15T12:10:20;2.80;99.90
54642;DHT22;40536;53.194;5.728;2024-01-15T12:15:18;2.80;99.90
54642;DHT22;40536;53.194;5.728;2024-01-15T12:17:43;2.80;99.90
54642;DHT22;40536;53.194;5.728;2024-01-15T12:20:11;2.80;99.90
54642;DHT22;40536;53.194;5.728;2024-01-15T12:22:37;2.90;99.90
54642;DHT22;40536;53.194;5.728;2024-01-15T12:25:03;4.40;99.90
54642;DHT22;40536;53.194;5.728;2024-01-15T12:27:29;3.10;99.90
54642;DHT22;40536;53.194;5.728;2024-01-15T12:29:55;3.10;99.90
54642;DHT22;40536;53.194;5.728;2024-01-15T12:32:21;3.20;99.90
54642;DHT22;40536;53.194;5.728;2024-01-15T12:34:49;3.30;99.90
54642;DHT22;40536;53.194;5.728;2024-01-15T12:37:17;3.30;99.90
54642;DHT22;40536;53.194;5.728;2024-01-15T12:39:44;3.40;99.90
54642;DHT22;40536;53.194;5.728;2024-01-15T12:42:14;3.40;99.90
54642;DHT22;40536;53.194;5.728;2024-01-15T12:44:40;3.40;99.90
54642;DHT22;40536;53.194;5.728;2024-01-15T12:47:06;3.30;99.90
54642;DHT22;40536;53.194;5.728;2024-01-15T12:49:32;3.40;99.90
54642;DHT22;40536;53.194;5.728;2024-01-15T12:51:58;3.30;99.90
54642;DHT22;40536;53.194;5.728;2024-01-15T12:54:25;3.20;99.90
54642;DHT22;40536;53.194;5.728;2024-01-15T12:56:51;3.20;99.90
54642;DHT22;40536;53.194;5.728;2024-01-15T12:59:18;3.30;99.90
54642;DHT22;40536;53.194;5.728;2024-01-15T13:01:44;3.50;99.90
54642;DHT22;40536;53.194;5.728;2024-01-15T13:04:10;3.60;99.90
54642;DHT22;40536;53.194;5.728;2024-01-15T13:06:36;3.70;99.90
54642;DHT22;40536;53.194;5.728;2024-01-15T13:09:05;3.70;99.90
54642;DHT22;40536;53.194;5.728;2024-01-15T13:11:32;4.70;99.90
54642;DHT22;40536;53.194;5.728;2024-01-15T13:13:58;3.60;99.90
54642;DHT22;40536;53.194;5.728;2024-01-15T13:16:23;3.60;99.90
54642;DHT22;40536;53.194;5.728;2024-01-15T13:18:52;3.60;99.90
54642;DHT22;40536;53.194;5.728;2024-01-15T13:21:18;3.60;99.90
54642;DHT22;40536;53.194;5.728;2024-01-15T13:23:43;3.60;99.90
54642;DHT22;40536;53.194;5.728;2024-01-15T13:26:09;3.50;99.90
54642;DHT22;40536;53.194;5.728;2024-01-15T13:28:34;3.50;99.90
54642;DHT22;40536;53.194;5.728;2024-01-15T13:31:00;3.50;99.90
54642;DHT22;40536;53.194;5.728;2024-01-15T13:33:28;3.50;99.90
54642;DHT22;40536;53.194;5.728;2024-01-15T13:35:53;3.50;99.90
54642;DHT22;40536;53.194;5.728;2024-01-15T13:38:19;3.30;99.90
54642;DHT22;40536;53.194;5.728;2024-01-15T13:40:45;3.10;99.90
54642;DHT22;40536;53.194;5.728;2024-01-15T13:43:12;4.10;99.90
54642;DHT22;40536;53.194;5.728;2024-01-15T13:45:41;3.00;99.90
54642;DHT22;40536;53.194;5.728;2024-01-15T13:48:07;4.10;99.90
54642;DHT22;40536;53.194;5.728;2024-01-15T13:50:34;3.10;99.90
54642;DHT22;40536;53.194;5.728;2024-01-15T13:53:01;3.10;99.90
54642;DHT22;40536;53.194;5.728;2024-01-15T13:55:27;3.80;99.90
54642;DHT22;40536;53.194;5.728;2024-01-15T13:57:54;3.20;99.90
54642;DHT22;40536;53.194;5.728;2024-01-15T14:00:20;3.30;99.90
54642;DHT22;40536;53.194;5.728;2024-01-15T14:02:46;3.20;99.90
54642;DHT22;40536;53.194;5.728;2024-01-15T14:05:13;3.20;99.90
54642;DHT22;40536;53.194;5.728;2024-01-15T14:07:39;3.20;99.90
54642;DHT22;40536;53.194;5.728;2024-01-15T14:10:05;3.20;99.90
54642;DHT22;40536;53.194;5.728;2024-01-15T14:12:33;3.30;99.90
54642;DHT22;40536;53.194;5.728;2024-01-15T14:15:00;3.30;99.90
54642;DHT22;40536;53.194;5.728;2024-01-15T14:17:27;3.30;99.90
54642;DHT22;40536;53.194;5.728;2024-01-15T14:19:52;3.20;99.90
54642;DHT22;40536;53.194;5.728;2024-01-15T14:22:18;3.10;99.90
54642;DHT22;40536;53.194;5.728;2024-01-15T14:24:43;2.90;99.90
54642;DHT22;40536;53.194;5.728;2024-01-15T14:27:09;2.60;99.90
54642;DHT22;40536;53.194;5.728;2024-01-15T14:29:35;2.30;99.90
54642;DHT22;40536;53.194;5.728;2024-01-15T14:32:01;2.20;99.90
54642;DHT22;40536;53.194;5.728;2024-01-15T14:34:31;2.00;99.90
54642;DHT22;40536;53.194;5.728;2024-01-15T14:36:58;2.00;99.90
54642;DHT22;40536;53.194;5.728;2024-01-15T14:39:24;1.90;99.90
54642;DHT22;40536;53.194;5.728;2024-01-15T14:41:51;1.90;99.90
54642;DHT22;40536;53.194;5.728;2024-01-15T14:44:17;1.90;99.90
54642;DHT22;40536;53.194;5.728;2024-01-15T14:46:42;2.00;99.90
54642;DHT22;40536;53.194;5.728;2024-01-15T14:49:08;1.90;99.90
54642;DHT22;40536;53.194;5.728;2024-01-15T14:51:34;2.00;99.90
54642;DHT22;40536;53.194;5.728;2024-01-15T14:53:59;2.00;99.90
54642;DHT22;40536;53.194;5.728;2024-01-15T14:56:25;2.00;99.90
54642;DHT22;40536;53.194;5.728;2024-01-15T14:58:51;3.20;99.90
54642;DHT22;40536;53.194;5.728;2024-01-15T15:01:16;2.10;99.90
54642;DHT22;40536;53.194;5.728;2024-01-15T15:03:42;2.10;99.90
54642;DHT22;40536;53.194;5.728;2024-01-15T15:06:09;2.20;99.90
54642;DHT22;40536;53.194;5.728;2024-01-15T15:08:36;2.20;99.90
54642;DHT22;40536;53.194;5.728;2024-01-15T15:11:03;2.90;99.90
54642;DHT22;40536;53.194;5.728;2024-01-15T15:13:29;2.20;99.90
54642;DHT22;40536;53.194;5.728;2024-01-15T15:15:54;2.20;99.90
54642;DHT22;40536;53.194;5.728;2024-01-15T15:18:21;2.20;99.90
54642;DHT22;40536;53.194;5.728;2024-01-15T15:20:50;2.20;99.90
54642;DHT22;40536;53.194;5.728;2024-01-15T15:23:16;2.20;99.90
54642;DHT22;40536;53.194;5.728;2024-01-15T15:25:43;2.10;99.90
54642;DHT22;40536;53.194;5.728;2024-01-15T15:28:09;2.10;99.90
54642;DHT22;40536;53.194;5.728;2024-01-15T15:30:37;2.10;99.90
54642;DHT22;40536;53.194;5.728;2024-01-15T15:33:04;2.10;99.90
54642;DHT22;40536;53.194;5.728;2024-01-15T15:35:30;2.10;99.90
54642;DHT22;40536;53.194;5.728;2024-01-15T15:37:56;2.00;99.90
54642;DHT22;40536;53.194;5.728;2024-01-15T15:40:22;2.00;99.90
54642;DHT22;40536;53.194;5.728;2024-01-15T15:42:52;1.90;99.90
54642;DHT22;40536;53.194;5.728;2024-01-15T15:45:17;1.80;99.90
54642;DHT22;40536;53.194;5.728;2024-01-15T15:47:43;2.90;99.90
54642;DHT22;40536;53.194;5.728;2024-01-15T15:50:09;1.80;99.90
54642;DHT22;40536;53.194;5.728;2024-01-15T15:52:34;1.80;99.90
54642;DHT22;40536;53.194;5.728;2024-01-15T15:55:00;2.80;99.90
54642;DHT22;40536;53.194;5.728;2024-01-15T15:57:26;1.80;99.90
54642;DHT22;40536;53.194;5.728;2024-01-15T15:59:52;1.80;99.90
54642;DHT22;40536;53.194;5.728;2024-01-15T16:02:21;2.90;99.90